Time;durP1;ratioP1;P1;durP2;ratioP2;P2;SDS_P1;SDS_P2;PMS_P1;PMS_P2;Temp;Humidity;BMP_temperature;BMP_pressure;BME280_temperature;BME280_humidity;BME280_pressure;Samples;Min_cycle;Max_cycle;Signal;HPM_P1;HPM_P2
2024/04/10 00:04:48;;;;;;;0.00;0.00;;;;;;;12.34;66.09;101345.63;16535335;26;20653;-50
2024/04/10 00:12:26;;;;;;;0.00;0.00;;;;;;;12.18;67.34;101341.47;16552965;26;20006;-51
2024/04/10 00:20:02;;;;;;;0.00;0.00;;;;;;;12.28;65.88;101336.50;16562100;26;20020;-50
2024/04/10 00:27:40;;;;;;;0.00;0.00;;;;;;;12.30;65.13;101333.59;16535780;26;20001;-49
2024/04/10 00:35:15;;;;;;;0.00;0.00;;;;;;;12.11;65.51;101333.38;16568735;26;20397;-51
2024/04/10 00:42:54;;;;;;;0.00;0.00;;;;;;;11.89;66.16;101351.59;16530546;26;20017;-51
2024/04/10 00:50:30;;;;;;;1.08;0.20;;;;;;;11.93;65.58;101354.69;16566927;26;20032;-52
2024/04/10 00:58:08;;;;;;;0.00;0.00;;;;;;;11.87;65.29;101388.59;16560734;26;20070;-50
2024/04/10 01:05:58;;;;;;;15.88;0.90;;;;;;;12.06;65.12;101388.84;16545295;26;20001;-50
2024/04/10 01:13:37;;;;;;;0.00;0.00;;;;;;;11.74;65.60;101393.91;16550897;26;20013;-49
2024/04/10 01:21:13;;;;;;;0.00;0.00;;;;;;;12.17;64.81;101399.88;16551145;26;20017;-48
2024/04/10 01:28:52;;;;;;;0.00;0.00;;;;;;;12.07;64.83;101420.09;16542521;26;20009;-48
2024/04/10 01:36:30;;;;;;;0.10;0.10;;;;;;;11.72;65.43;101426.38;16515832;26;20001;-50
2024/04/10 01:44:08;;;;;;;0.00;0.00;;;;;;;12.04;63.91;101415.97;16555408;26;20462;-49
2024/04/10 01:51:58;;;;;;;0.00;0.00;;;;;;;12.39;61.28;101422.03;16518776;26;20307;-51
2024/04/10 01:59:36;;;;;;;0.00;0.00;;;;;;;12.26;61.04;101438.16;16570379;26;20020;-50
2024/04/10 02:07:15;;;;;;;0.00;0.00;;;;;;;12.05;61.66;101455.31;16497937;26;20406;-49
2024/04/10 02:14:54;;;;;;;0.00;0.00;;;;;;;12.15;61.24;101452.22;16538669;26;20001;-48
2024/04/10 02:22:33;;;;;;;0.00;0.00;;;;;;;12.16;61.74;101448.50;16526057;26;20423;-51
2024/04/10 02:30:25;;;;;;;0.38;0.20;;;;;;;12.58;60.16;101454.56;16537239;26;19997;-48
2024/04/10 02:38:09;;;;;;;0.00;0.00;;;;;;;11.96;62.65;101461.91;16508824;26;20300;-47
2024/04/10 02:45:56;;;;;;;4.75;0.98;;;;;;;11.91;63.06;101472.44;16514258;26;20151;-50
2024/04/10 02:53:32;;;;;;;0.00;0.00;;;;;;;12.09;62.70;101483.47;16501433;26;20056;-48
2024/04/10 03:01:14;;;;;;;0.00;0.00;;;;;;;12.16;62.14;101497.75;16545029;26;20001;-50
2024/04/10 03:08:51;;;;;;;0.00;0.00;;;;;;;12.19;61.61;101520.75;16571720;21;20035;-51
2024/04/10 03:16:31;;;;;;;0.00;0.00;;;;;;;12.32;61.39;101544.22;16650054;26;20015;-50
2024/04/10 03:24:09;;;;;;;0.00;0.00;;;;;;;12.26;61.54;101553.91;16628158;26;20421;-54
2024/04/10 03:31:47;;;;;;;0.20;0.20;;;;;;;11.71;63.48;101559.22;16624118;26;20000;-48
2024/04/10 03:39:27;;;;;;;0.05;0.05;;;;;;;12.02;62.51;101573.25;16618425;26;20004;-48
2024/04/10 03:47:07;;;;;;;0.00;0.00;;;;;;;12.01;61.98;101588.56;16618785;26;20005;-49
2024/04/10 03:54:46;;;;;;;0.52;0.52;;;;;;;11.72;63.62;101592.31;16625566;26;20437;-50
2024/04/10 04:02:25;;;;;;;0.20;0.20;;;;;;;11.35;64.02;101599.69;16629066;26;20007;-53
2024/04/10 04:10:02;;;;;;;0.00;0.00;;;;;;;11.49;63.65;101600.63;16623791;26;20082;-50
2024/04/10 04:17:42;;;;;;;1.17;0.70;;;;;;;11.53;62.61;101619.88;16642890;26;20004;-51
2024/04/10 04:25:18;;;;;;;0.05;0.05;;;;;;;11.40;63.68;101634.88;16657278;26;20020;-53
2024/04/10 04:33:14;;;;;;;0.50;0.45;;;;;;;11.85;61.79;101656.16;16634736;26;20094;-50
2024/04/10 04:40:53;;;;;;;0.10;0.10;;;;;;;11.70;61.89;101680.41;16645692;26;20004;-51
2024/04/10 04:48:31;;;;;;;0.00;0.00;;;;;;;11.96;61.56;101709.41;16619065;26;20073;-49
2024/04/10 04:56:11;;;;;;;0.67;0.67;;;;;;;11.83;61.58;101717.38;16619596;26;20005;-50
2024/04/10 05:12:00;;;;;;;0.05;0.05;;;;;;;11.26;63.09;101751.34;16597145;26;20005;-52
2024/04/10 05:19:40;;;;;;;0.40;0.40;;;;;;;11.41;62.05;101746.75;16618575;26;20052;-51
2024/04/10 05:27:25;;;;;;;1.02;0.57;;;;;;;11.02;61.85;101749.00;16634280;26;20279;-51
2024/04/10 05:35:04;;;;;;;0.17;0.17;;;;;;;11.33;61.34;101781.84;16619653;26;20077;-50
2024/04/10 05:42:40;;;;;;;0.10;0.10;;;;;;;11.60;60.70;101785.63;16637521;26;20000;-50
2024/04/10 05:50:28;;;;;;;3.20;1.17;;;;;;;11.87;59.15;101797.50;16628971;26;20001;-48
2024/04/10 05:58:03;;;;;;;0.20;0.20;;;;;;;11.89;59.78;101800.00;16631085;26;20344;-50
2024/04/10 06:05:43;;;;;;;0.00;0.00;;;;;;;11.74;59.10;101808.09;16631213;26;20012;-53
2024/04/10 06:13:29;;;;;;;0.10;0.10;;;;;;;11.91;59.12;101820.31;16628525;26;20016;-50
2024/04/10 06:21:07;;;;;;;0.22;0.20;;;;;;;11.82;58.77;101820.59;16629228;26;20001;-50
2024/04/10 06:28:48;;;;;;;;;;;;;;;11.79;58.59;101827.19;16656271;26;20000;-54
2024/04/10 06:36:28;;;;;;;0.00;0.00;;;;;;;12.09;57.90;101833.31;16620909;26;19958;-53
2024/04/10 06:44:04;;;;;;;0.00;0.00;;;;;;;11.82;58.65;101851.06;16639806;26;20016;-50
2024/04/10 06:51:45;;;;;;;0.15;0.15;;;;;;;11.93;59.01;101857.78;16611719;26;20028;-51
2024/04/10 06:59:28;;;;;;;0.08;0.08;;;;;;;11.91;58.02;101857.16;16640764;26;20441;-48
2024/04/10 07:07:08;;;;;;;1.30;0.85;;;;;;;12.18;57.39;101880.59;16624493;26;20035;-48
2024/04/10 07:14:44;;;;;;;4.78;1.65;;;;;;;12.53;56.80;101896.84;16609124;26;20005;-48
2024/04/10 07:22:23;;;;;;;0.00;0.00;;;;;;;12.46;57.71;101912.13;16630168;26;20001;-50
2024/04/10 07:30:08;;;;;;;0.00;0.00;;;;;;;12.64;56.82;101912.50;16616821;26;20067;-51
2024/04/10 07:37:47;;;;;;;2.63;0.63;;;;;;;13.09;57.60;101914.84;16604402;26;20005;-51
2024/04/10 07:45:29;;;;;;;0.00;0.00;;;;;;;12.93;56.08;101926.78;16620461;26;20067;-54
2024/04/10 07:53:08;;;;;;;0.00;0.00;;;;;;;12.92;56.17;101952.09;16656989;26;20011;-52
2024/04/10 08:00:44;;;;;;;0.85;0.45;;;;;;;12.60;56.38;101961.56;16629848;26;20060;-49
2024/04/10 08:08:29;;;;;;;0.00;0.00;;;;;;;12.37;57.22;101970.66;16583920;26;20012;-51
2024/04/10 08:16:05;;;;;;;0.00;0.00;;;;;;;13.31;56.05;101980.38;16619705;26;20004;-52
2024/04/10 08:23:45;;;;;;;1.55;0.90;;;;;;;13.22;55.49;101994.00;16644551;26;20341;-50
2024/04/10 08:31:22;;;;;;;0.00;0.00;;;;;;;14.14;53.13;102000.91;16625920;26;20024;-50
2024/04/10 08:39:00;;;;;;;0.00;0.00;;;;;;;13.63;54.10;102012.09;16604928;26;20005;-49
2024/04/10 08:46:37;;;;;;;0.00;0.00;;;;;;;13.34;53.13;102033.91;16639527;26;20458;-51
2024/04/10 08:54:17;;;;;;;0.13;0.08;;;;;;;13.43;53.40;102044.34;16636825;26;20430;-51
2024/04/10 09:01:54;;;;;;;0.17;0.13;;;;;;;13.78;53.29;102042.47;16594701;26;20325;-49
2024/04/10 09:09:33;;;;;;;0.00;0.00;;;;;;;14.51;51.49;102055.47;16613784;21;20013;-51
2024/04/10 09:17:19;;;;;;;0.00;0.00;;;;;;;13.92;52.97;102064.13;16576862;26;20388;-50
2024/04/10 09:25:11;;;;;;;0.88;0.80;;;;;;;14.09;51.48;102078.97;16544863;26;20005;-53
2024/04/10 09:32:50;;;;;;;0.00;0.00;;;;;;;14.26;48.64;102085.69;16524030;26;20069;-52
2024/04/10 09:40:30;;;;;;;1.38;0.57;;;;;;;14.91;48.28;102087.97;16567385;26;20548;-51
2024/04/10 09:48:09;;;;;;;0.00;0.00;;;;;;;14.41;47.93;102095.50;16534429;26;20048;-52
2024/04/10 09:55:48;;;;;;;0.00;0.00;;;;;;;14.33;50.14;102117.31;16542618;26;19997;-52
2024/04/10 10:03:27;;;;;;;0.00;0.00;;;;;;;14.70;47.96;102099.78;16550982;26;19997;-51
2024/04/10 10:11:08;;;;;;;0.00;0.00;;;;;;;14.66;47.36;102120.97;16553592;26;20005;-52
2024/04/10 10:18:55;;;;;;;0.00;0.00;;;;;;;13.56;50.42;102129.91;16573896;26;20001;-50
2024/04/10 10:26:35;;;;;;;0.00;0.00;;;;;;;14.18;52.68;102136.34;16516982;26;20001;-51
2024/04/10 10:34:14;;;;;;;0.00;0.00;;;;;;;15.52;46.18;102126.47;16559100;26;20020;-56
2024/04/10 10:42:02;;;;;;;0.00;0.00;;;;;;;15.62;48.08;102141.47;16501176;26;20466;-53
2024/04/10 10:49:38;;;;;;;0.00;0.00;;;;;;;16.13;45.88;102141.59;16542006;26;20012;-52
2024/04/10 10:57:19;;;;;;;0.00;0.00;;;;;;;15.73;45.01;102149.00;16533771;26;20009;-53
2024/04/10 11:04:57;;;;;;;0.30;0.30;;;;;;;15.78;45.59;102152.72;16551869;26;20005;-50
2024/04/10 11:12:35;;;;;;;0.05;0.05;;;;;;;17.96;42.24;102151.75;16544514;26;20001;-50
2024/04/10 11:20:13;;;;;;;0.00;0.00;;;;;;;18.00;40.79;102161.09;16610053;26;20044;-51
2024/04/10 11:27:52;;;;;;;0.10;0.10;;;;;;;16.54;39.94;102184.63;16570258;26;20005;-52
2024/04/10 11:35:30;;;;;;;0.00;0.00;;;;;;;15.68;44.41;102189.41;16533743;26;20009;-51
2024/04/10 11:43:08;;;;;;;0.00;0.00;;;;;;;14.63;45.72;102204.31;16537457;26;20016;-48
2024/04/10 11:50:44;;;;;;;0.00;0.00;;;;;;;15.18;44.31;102218.66;16550276;26;20001;-50
2024/04/10 11:58:24;;;;;;;0.00;0.00;;;;;;;15.33;44.66;102227.41;16538223;26;20006;-50
2024/04/10 12:06:04;;;;;;;0.00;0.00;;;;;;;14.59;45.70;102217.41;16546949;26;20064;-49
2024/04/10 12:13:43;;;;;;;0.00;0.00;;;;;;;14.91;45.09;102218.56;16533306;26;20417;-49
2024/04/10 12:21:18;;;;;;;0.00;0.00;;;;;;;14.73;47.21;102238.03;16561465;26;20001;-51
2024/04/10 12:28:59;;;;;;;0.00;0.00;;;;;;;14.70;48.21;102249.28;16532094;26;20001;-50
2024/04/10 12:44:32;;;;;;;1.85;0.75;;;;;;;16.19;45.49;102234.75;16561425;26;20009;-50
2024/04/10 12:52:08;;;;;;;0.00;0.00;;;;;;;15.63;44.79;102249.53;16490473;26;20351;-53
2024/04/10 12:59:50;;;;;;;0.32;0.32;;;;;;;16.14;44.11;102257.06;16514499;26;20001;-51
2024/04/10 13:07:26;;;;;;;0.00;0.00;;;;;;;15.64;45.43;102258.53;16510469;26;19996;-49
2024/04/10 13:15:06;;;;;;;0.00;0.00;;;;;;;15.62;45.52;102256.00;16556025;26;20017;-52
2024/04/10 13:22:41;;;;;;;0.00;0.00;;;;;;;16.77;44.18;102256.53;16514909;26;20385;-55
2024/04/10 13:30:23;;;;;;;0.30;0.30;;;;;;;16.68;41.76;102247.75;16537778;26;20001;-50
2024/04/10 13:37:58;;;;;;;0.00;0.00;;;;;;;16.17;43.23;102255.78;16512116;26;20029;-51
2024/04/10 13:45:36;;;;;;;0.00;0.00;;;;;;;15.13;45.46;102267.94;16552213;26;20011;-53
2024/04/10 13:53:12;;;;;;;0.52;0.47;;;;;;;15.87;43.38;102261.66;16548106;26;20448;-52
2024/04/10 14:00:56;;;;;;;0.00;0.00;;;;;;;15.32;45.03;102269.88;16511701;26;20020;-50
2024/04/10 14:08:34;;;;;;;0.00;0.00;;;;;;;14.71;45.16;102288.78;16481408;26;20020;-51
2024/04/10 14:16:13;;;;;;;0.00;0.00;;;;;;;15.37;45.34;102284.66;16578706;26;20421;-53
2024/04/10 14:23:48;;;;;;;0.00;0.00;;;;;;;14.77;46.10;102306.06;16544701;26;20005;-54
2024/04/10 14:31:26;;;;;;;0.00;0.00;;;;;;;15.53;45.35;102309.50;16520628;26;20005;-48
2024/04/10 14:39:04;;;;;;;0.00;0.00;;;;;;;16.26;43.28;102314.16;16560584;26;20000;-48
2024/04/10 14:46:42;;;;;;;0.00;0.00;;;;;;;15.06;45.98;102326.56;16519552;26;20001;-50
2024/04/10 14:54:19;;;;;;;0.00;0.00;;;;;;;15.02;46.40;102336.97;16529458;26;20001;-51
2024/04/10 15:03:28;;;;;;;0.00;0.00;;;;;;;14.95;45.29;102351.50;16968988;25;20373;-51
2024/04/10 15:11:07;;;;;;;0.00;0.00;;;;;;;15.71;45.86;102354.09;16863990;21;20406;-52
2024/04/10 15:18:45;;;;;;;0.20;0.10;;;;;;;14.98;46.32;102360.03;16661159;26;20489;-54
2024/04/10 15:26:22;;;;;;;0.10;0.10;;;;;;;15.00;45.23;102376.06;16682035;26;20001;-56
2024/04/10 15:34:01;;;;;;;0.00;0.00;;;;;;;15.00;46.72;102374.19;16661898;26;20012;-57
2024/04/10 15:41:37;;;;;;;0.00;0.00;;;;;;;15.03;45.13;102379.22;16697132;26;20050;-55
2024/04/10 15:49:15;;;;;;;0.00;0.00;;;;;;;15.37;44.98;102373.94;16654349;26;20004;-53
2024/04/10 15:56:52;;;;;;;0.00;0.00;;;;;;;15.64;45.32;102381.16;16699151;26;20003;-52
2024/04/10 16:04:30;;;;;;;0.00;0.00;;;;;;;15.17;44.67;102387.41;16690981;26;20476;-55
2024/04/10 16:12:06;;;;;;;0.00;0.00;;;;;;;14.57;46.26;102389.72;16656921;26;20005;-56
2024/04/10 16:19:48;;;;;;;0.00;0.00;;;;;;;14.27;47.40;102402.53;16630442;26;20015;-54
2024/04/10 16:27:23;;;;;;;0.00;0.00;;;;;;;14.43;46.95;102385.22;16678398;26;20039;-53
2024/04/10 16:35:02;;;;;;;0.00;0.00;;;;;;;14.40;47.68;102399.09;16645044;26;20260;-53
2024/04/10 16:52:30;;;;;;;0.00;0.00;;;;;;;14.87;47.37;102416.53;16689456;26;20051;-55
2024/04/10 17:00:06;;;;;;;0.25;0.20;;;;;;;14.87;46.27;102430.06;16777978;26;20005;-57
2024/04/10 17:07:46;;;;;;;0.00;0.00;;;;;;;14.78;48.01;102434.75;16646179;26;20073;-52
2024/04/10 17:15:24;;;;;;;0.00;0.00;;;;;;;14.91;47.93;102439.44;16674611;26;20012;-53
2024/04/10 17:23:02;;;;;;;0.15;0.15;;;;;;;15.00;47.86;102449.06;16692805;26;20515;-55
2024/04/10 17:30:37;;;;;;;0.00;0.00;;;;;;;13.89;49.65;102443.25;16643531;26;19997;-52
2024/04/10 17:38:16;;;;;;;0.00;0.00;;;;;;;13.84;49.43;102453.78;16684229;26;20000;-56
2024/04/10 17:45:52;;;;;;;0.00;0.00;;;;;;;13.62;50.89;102462.88;16685860;26;20093;-53
2024/04/10 17:53:30;;;;;;;0.00;0.00;;;;;;;13.82;49.89;102471.22;16759029;26;20396;-52
2024/04/10 18:01:08;;;;;;;0.00;0.00;;;;;;;14.16;50.66;102481.34;16720466;26;20022;-52
2024/04/10 18:08:46;;;;;;;0.60;0.10;;;;;;;14.23;50.72;102475.00;16714540;26;20077;-49
2024/04/10 18:16:21;;;;;;;0.00;0.00;;;;;;;14.15;50.99;102498.59;16732057;26;20097;-55
2024/04/10 18:23:59;;;;;;;0.00;0.00;;;;;;;14.06;52.08;102491.63;16785232;26;20420;-57
2024/04/10 18:31:36;;;;;;;0.00;0.00;;;;;;;13.73;52.98;102511.78;16753332;26;20069;-55
2024/04/10 18:39:15;;;;;;;0.28;0.15;;;;;;;13.29;54.38;102503.72;16743455;26;20010;-57
2024/04/10 18:46:51;;;;;;;0.00;0.00;;;;;;;12.70;56.17;102512.50;16776682;26;20133;-56
2024/04/10 18:54:30;;;;;;;0.00;0.00;;;;;;;12.45;57.90;102529.84;16782938;26;20103;-48
2024/04/10 19:02:09;;;;;;;0.30;0.30;;;;;;;12.27;59.64;102549.00;16782716;26;20016;-51
2024/04/10 19:09:48;;;;;;;0.28;0.28;;;;;;;12.16;58.90;102558.28;16748057;26;20003;-53
2024/04/10 19:17:23;;;;;;;0.10;0.10;;;;;;;11.92;60.62;102556.53;16745587;26;20338;-55
2024/04/10 19:25:01;;;;;;;0.00;0.00;;;;;;;11.88;60.01;102567.84;16705964;26;20095;-55
2024/04/10 19:32:42;;;;;;;0.00;0.00;;;;;;;11.65;59.24;102579.31;16743448;26;20444;-55
2024/04/10 19:40:21;;;;;;;1.30;0.28;;;;;;;11.62;59.78;102576.13;16687980;26;20054;-56
2024/04/10 19:47:58;;;;;;;0.00;0.00;;;;;;;11.38;60.88;102579.72;16674231;26;20020;-54
2024/04/10 19:55:37;;;;;;;0.70;0.57;;;;;;;11.19;60.72;102581.75;16743485;26;20084;-51
2024/04/10 20:03:12;;;;;;;0.00;0.00;;;;;;;11.05;61.13;102586.94;16687075;26;20059;-56
2024/04/10 20:10:51;;;;;;;0.55;0.25;;;;;;;10.94;61.06;102582.75;16719846;26;19995;-53
2024/04/10 20:18:27;;;;;;;0.00;0.00;;;;;;;10.81;61.59;102577.88;16771657;26;20010;-53
2024/04/10 20:26:09;;;;;;;1.45;0.32;;;;;;;10.37;63.25;102580.81;16758427;26;20014;-54
2024/04/10 20:33:47;;;;;;;0.10;0.10;;;;;;;10.35;63.58;102588.22;16754304;26;20062;-51
2024/04/10 20:41:25;;;;;;;0.50;0.50;;;;;;;10.10;64.51;102587.22;16733254;26;20011;-53
2024/04/10 20:49:01;;;;;;;0.00;0.00;;;;;;;10.03;64.35;102593.44;16707347;26;20010;-50
2024/04/10 20:56:39;;;;;;;0.00;0.00;;;;;;;9.89;65.88;102598.38;16786770;26;20357;-54
2024/04/10 21:04:16;;;;;;;0.10;0.10;;;;;;;9.66;66.79;102597.25;16741644;26;20398;-51
2024/04/10 22:15:02;;;;;;;0.00;0.00;;;;;;;8.82;68.04;102657.53;16534920;26;20016;-55
2024/04/10 22:30:45;;;;;;;0.00;0.00;;;;;;;8.61;68.55;102660.47;16449929;26;20016;-46
2024/04/10 22:38:21;;;;;;;0.00;0.00;;;;;;;8.67;68.38;102662.56;16620986;26;20000;-51
2024/04/10 22:46:03;;;;;;;0.00;0.00;;;;;;;8.64;68.17;102665.53;16620249;26;20000;-51
2024/04/10 22:53:38;;;;;;;0.00;0.00;;;;;;;8.48;68.85;102657.31;16565760;26;19997;-47
2024/04/10 23:01:17;;;;;;;0.30;0.30;;;;;;;8.45;68.86;102656.78;16638037;26;20001;-46
2024/04/10 23:08:53;;;;;;;0.00;0.00;;;;;;;8.37;68.89;102666.38;16600773;26;20453;-49
2024/04/10 23:16:32;;;;;;;0.32;0.32;;;;;;;8.15;69.80;102662.22;16638405;26;20011;-52
2024/04/10 23:24:09;;;;;;;1.25;0.25;;;;;;;8.12;69.75;102664.38;16668582;26;20015;-48
2024/04/10 23:31:49;;;;;;;6.72;1.35;;;;;;;7.93;69.65;102662.59;16671610;26;20004;-54
2024/04/10 23:39:25;;;;;;;0.00;0.00;;;;;;;7.86;69.86;102654.31;16673666;26;20037;-48
2024/04/10 23:47:04;;;;;;;0.00;0.00;;;;;;;7.70;70.40;102634.53;16654861;26;20257;-48
2024/04/10 23:54:41;;;;;;;0.10;0.10;;;;;;;7.76;70.94;102652.66;16593101;26;20004;-51
